sensor_id;sensor_type;location;lat;lon;timestamp;pressure;altitude;pressure_sealevel;temperature;humidity
6853;BME280;3465;42.144;24.722;2024-03-07T00:00:20;99796.06;;;7.58;77.66
6853;BME280;3465;42.144;24.722;2024-03-07T00:02:48;99790.91;;;7.58;77.59
6853;BME280;3465;42.144;24.722;2024-03-07T00:05:18;99792.88;;;7.53;77.76
6853;BME280;3465;42.144;24.722;2024-03-07T00:07:44;99790.16;;;7.56;77.61
6853;BME280;3465;42.144;24.722;2024-03-07T00:10:10;99779.19;;;7.51;77.57
6853;BME280;3465;42.144;24.722;2024-03-07T00:12:37;99780.78;;;7.54;78.00
6853;BME280;3465;42.144;24.722;2024-03-07T00:15:07;99786.50;;;7.60;78.09
6853;BME280;3465;42.144;24.722;2024-03-07T00:17:33;99787.25;;;7.62;77.89
6853;BME280;3465;42.144;24.722;2024-03-07T00:20:00;99791.28;;;7.68;77.39
6853;BME280;3465;42.144;24.722;2024-03-07T00:22:28;99792.28;;;7.65;78.23
6853;BME280;3465;42.144;24.722;2024-03-07T00:24:58;99788.25;;;7.77;77.78
6853;BME280;3465;42.144;24.722;2024-03-07T00:27:24;99794.25;;;7.78;77.81
6853;BME280;3465;42.144;24.722;2024-03-07T00:29:51;99792.13;;;7.86;77.18
6853;BME280;3465;42.144;24.722;2024-03-07T00:32:20;99780.66;;;7.74;77.09
6853;BME280;3465;42.144;24.722;2024-03-07T00:34:47;99785.81;;;7.74;77.28
6853;BME280;3465;42.144;24.722;2024-03-07T00:37:13;99786.66;;;7.75;77.91
6853;BME280;3465;42.144;24.722;2024-03-07T00:39:38;99786.41;;;7.62;78.19
6853;BME280;3465;42.144;24.722;2024-03-07T00:42:04;99783.53;;;7.68;77.83
6853;BME280;3465;42.144;24.722;2024-03-07T00:44:29;99788.53;;;7.71;77.19
6853;BME280;3465;42.144;24.722;2024-03-07T00:46:55;99785.91;;;7.73;77.15
6853;BME280;3465;42.144;24.722;2024-03-07T00:49:22;99789.00;;;7.62;77.47
6853;BME280;3465;42.144;24.722;2024-03-07T00:51:47;99785.50;;;7.63;77.62
6853;BME280;3465;42.144;24.722;2024-03-07T00:54:16;99773.13;;;7.52;77.82
6853;BME280;3465;42.144;24.722;2024-03-07T00:56:42;99773.16;;;7.51;77.46
6853;BME280;3465;42.144;24.722;2024-03-07T00:59:07;99773.25;;;7.49;77.90
6853;BME280;3465;42.144;24.722;2024-03-07T01:01:33;99775.22;;;7.61;77.43
6853;BME280;3465;42.144;24.722;2024-03-07T01:04:01;99780.09;;;7.67;77.41
6853;BME280;3465;42.144;24.722;2024-03-07T01:06:27;99769.16;;;7.80;76.34
6853;BME280;3465;42.144;24.722;2024-03-07T01:08:53;99770.63;;;7.68;76.39
6853;BME280;3465;42.144;24.722;2024-03-07T01:11:19;99762.91;;;7.49;77.49
6853;BME280;3465;42.144;24.722;2024-03-07T01:13:44;99774.75;;;7.36;77.55
6853;BME280;3465;42.144;24.722;2024-03-07T01:16:10;99783.91;;;7.25;78.09
6853;BME280;3465;42.144;24.722;2024-03-07T01:18:37;99772.38;;;7.32;77.52
6853;BME280;3465;42.144;24.722;2024-03-07T01:21:04;99768.28;;;7.28;77.79
6853;BME280;3465;42.144;24.722;2024-03-07T01:23:31;99770.66;;;7.49;76.48
6853;BME280;3465;42.144;24.722;2024-03-07T01:25:57;99768.66;;;7.37;76.94
6853;BME280;3465;42.144;24.722;2024-03-07T01:28:24;99775.94;;;7.29;77.20
6853;BME280;3465;42.144;24.722;2024-03-07T01:30:53;99778.91;;;7.22;76.61
6853;BME280;3465;42.144;24.722;2024-03-07T01:33:19;99769.41;;;7.22;76.76
6853;BME280;3465;42.144;24.722;2024-03-07T01:35:45;99774.72;;;7.19;76.33
6853;BME280;3465;42.144;24.722;2024-03-07T01:38:10;99773.06;;;7.18;77.05
6853;BME280;3465;42.144;24.722;2024-03-07T01:40:39;99783.38;;;7.18;76.74
6853;BME280;3465;42.144;24.722;2024-03-07T01:43:05;99785.13;;;7.18;76.84
6853;BME280;3465;42.144;24.722;2024-03-07T01:45:31;99780.03;;;7.16;77.01
6853;BME280;3465;42.144;24.722;2024-03-07T01:47:57;99783.72;;;7.11;77.10
6853;BME280;3465;42.144;24.722;2024-03-07T01:50:23;99786.16;;;7.14;77.28
6853;BME280;3465;42.144;24.722;2024-03-07T01:52:49;99782.31;;;7.22;76.30
6853;BME280;3465;42.144;24.722;2024-03-07T01:55:21;99777.97;;;7.23;76.60
6853;BME280;3465;42.144;24.722;2024-03-07T01:57:47;99777.09;;;7.24;76.62
6853;BME280;3465;42.144;24.722;2024-03-07T02:00:13;99774.41;;;7.25;76.40
6853;BME280;3465;42.144;24.722;2024-03-07T02:02:39;99776.53;;;7.17;76.21
6853;BME280;3465;42.144;24.722;2024-03-07T02:05:05;99782.63;;;7.16;76.57
6853;BME280;3465;42.144;24.722;2024-03-07T02:07:32;99778.06;;;7.21;76.59
6853;BME280;3465;42.144;24.722;2024-03-07T02:10:02;99771.38;;;7.17;76.72
6853;BME280;3465;42.144;24.722;2024-03-07T02:12:29;99775.34;;;7.24;76.72
6853;BME280;3465;42.144;24.722;2024-03-07T02:14:59;99771.22;;;7.20;76.15
6853;BME280;3465;42.144;24.722;2024-03-07T02:17:27;99768.66;;;7.20;76.61
6853;BME280;3465;42.144;24.722;2024-03-07T02:19:53;99773.53;;;7.26;76.16
6853;BME280;3465;42.144;24.722;2024-03-07T02:22:19;99765.34;;;7.17;76.23
6853;BME280;3465;42.144;24.722;2024-03-07T02:24:45;99774.16;;;7.13;76.19
6853;BME280;3465;42.144;24.722;2024-03-07T02:27:12;99751.28;;;7.05;76.76
6853;BME280;3465;42.144;24.722;2024-03-07T02:29:37;99775.34;;;7.06;77.13
6853;BME280;3465;42.144;24.722;2024-03-07T02:32:03;99763.34;;;7.05;76.51
6853;BME280;3465;42.144;24.722;2024-03-07T02:34:29;99736.16;;;6.98;76.29
6853;BME280;3465;42.144;24.722;2024-03-07T02:36:55;99752.47;;;6.98;76.13
6853;BME280;3465;42.144;24.722;2024-03-07T02:39:21;99754.22;;;6.98;76.17
6853;BME280;3465;42.144;24.722;2024-03-07T02:41:47;99774.97;;;6.96;76.94
6853;BME280;3465;42.144;24.722;2024-03-07T02:44:16;99765.13;;;6.86;76.45
6853;BME280;3465;42.144;24.722;2024-03-07T02:46:42;99771.94;;;6.87;76.45
6853;BME280;3465;42.144;24.722;2024-03-07T02:49:07;99768.66;;;6.83;77.40
6853;BME280;3465;42.144;24.722;2024-03-07T02:51:33;99770.63;;;6.78;76.71
6853;BME280;3465;42.144;24.722;2024-03-07T02:53:59;99773.63;;;6.88;77.03
6853;BME280;3465;42.144;24.722;2024-03-07T02:56:24;99770.56;;;6.98;76.56
6853;BME280;3465;42.144;24.722;2024-03-07T02:58:51;99766.22;;;6.99;76.11
6853;BME280;3465;42.144;24.722;2024-03-07T03:01:16;99763.28;;;7.06;78.74
6853;BME280;3465;42.144;24.722;2024-03-07T03:03:42;99762.00;;;7.15;77.57
6853;BME280;3465;42.144;24.722;2024-03-07T03:06:08;99757.56;;;7.18;76.08
6853;BME280;3465;42.144;24.722;2024-03-07T03:08:34;99765.31;;;7.18;74.92
6853;BME280;3465;42.144;24.722;2024-03-07T03:11:01;99751.72;;;6.96;74.90
6853;BME280;3465;42.144;24.722;2024-03-07T03:13:26;99768.25;;;6.92;75.46
6853;BME280;3465;42.144;24.722;2024-03-07T03:15:53;99766.94;;;6.83;76.25
6853;BME280;3465;42.144;24.722;2024-03-07T03:18:21;99767.81;;;6.82;76.85
6853;BME280;3465;42.144;24.722;2024-03-07T03:20:46;99743.22;;;6.75;75.39
6853;BME280;3465;42.144;24.722;2024-03-07T03:23:13;99775.72;;;6.98;75.74
6853;BME280;3465;42.144;24.722;2024-03-07T03:25:39;99781.66;;;7.00;75.60
6853;BME280;3465;42.144;24.722;2024-03-07T03:28:05;99777.19;;;7.04;74.58
6853;BME280;3465;42.144;24.722;2024-03-07T03:30:31;99768.50;;;7.05;74.99
6853;BME280;3465;42.144;24.722;2024-03-07T03:32:58;99770.03;;;7.09;74.67
6853;BME280;3465;42.144;24.722;2024-03-07T03:35:23;99769.00;;;7.13;74.41
6853;BME280;3465;42.144;24.722;2024-03-07T03:37:49;99774.13;;;6.96;74.39
6853;BME280;3465;42.144;24.722;2024-03-07T03:40:15;99776.53;;;6.99;74.80
6853;BME280;3465;42.144;24.722;2024-03-07T03:42:42;99768.31;;;7.09;73.93
6853;BME280;3465;42.144;24.722;2024-03-07T03:45:09;99775.44;;;7.04;75.51
6853;BME280;3465;42.144;24.722;2024-03-07T03:47:40;99779.88;;;7.01;74.95
6853;BME280;3465;42.144;24.722;2024-03-07T03:50:06;99778.22;;;7.00;74.79
6853;BME280;3465;42.144;24.722;2024-03-07T03:52:32;99781.38;;;7.06;74.98
6853;BME280;3465;42.144;24.722;2024-03-07T03:54:58;99773.47;;;7.09;74.49
6853;BME280;3465;42.144;24.722;2024-03-07T03:57:28;99772.69;;;7.07;74.98
6853;BME280;3465;42.144;24.722;2024-03-07T03:59:54;99774.31;;;7.10;74.80
6853;BME280;3465;42.144;24.722;2024-03-07T04:02:20;99767.25;;;6.95;74.99
6853;BME280;3465;42.144;24.722;2024-03-07T04:04:47;99776.53;;;6.99;75.43
6853;BME280;3465;42.144;24.722;2024-03-07T04:07:14;99779.19;;;6.97;74.32
6853;BME280;3465;42.144;24.722;2024-03-07T04:09:41;99782.56;;;6.99;74.56
6853;BME280;3465;42.144;24.722;2024-03-07T04:12:08;99740.84;;;6.71;75.34
6853;BME280;3465;42.144;24.722;2024-03-07T04:14:45;99779.75;;;6.85;74.97
6853;BME280;3465;42.144;24.722;2024-03-07T04:17:10;99763.66;;;6.80;75.06
6853;BME280;3465;42.144;24.722;2024-03-07T04:19:42;99765.13;;;6.86;75.42
6853;BME280;3465;42.144;24.722;2024-03-07T04:22:08;99774.47;;;6.88;74.67
6853;BME280;3465;42.144;24.722;2024-03-07T04:24:37;99774.88;;;6.79;75.94
6853;BME280;3465;42.144;24.722;2024-03-07T04:27:04;99779.47;;;6.91;74.92
6853;BME280;3465;42.144;24.722;2024-03-07T04:29:31;99776.91;;;6.91;74.59
6853;BME280;3465;42.144;24.722;2024-03-07T04:31:57;99775.09;;;6.93;74.96
6853;BME280;3465;42.144;24.722;2024-03-07T04:34:23;99779.56;;;6.90;74.56
6853;BME280;3465;42.144;24.722;2024-03-07T04:36:48;99773.63;;;6.88;74.55
6853;BME280;3465;42.144;24.722;2024-03-07T04:39:14;99774.31;;;6.91;75.75
6853;BME280;3465;42.144;24.722;2024-03-07T04:41:52;99778.91;;;7.03;74.94
6853;BME280;3465;42.144;24.722;2024-03-07T04:44:18;99775.66;;;7.00;74.98
6853;BME280;3465;42.144;24.722;2024-03-07T04:46:47;99779.13;;;6.99;74.91
6853;BME280;3465;42.144;24.722;2024-03-07T04:49:14;99777.06;;;6.88;75.21
6853;BME280;3465;42.144;24.722;2024-03-07T04:51:39;99787.03;;;6.96;75.19
6853;BME280;3465;42.144;24.722;2024-03-07T04:54:05;99785.13;;;6.99;75.25
6853;BME280;3465;42.144;24.722;2024-03-07T04:56:31;99783.47;;;6.98;75.51
6853;BME280;3465;42.144;24.722;2024-03-07T04:58:57;99778.09;;;6.84;76.22
6853;BME280;3465;42.144;24.722;2024-03-07T05:01:22;99788.44;;;6.84;76.36
6853;BME280;3465;42.144;24.722;2024-03-07T05:03:48;99785.56;;;6.71;77.47
6853;BME280;3465;42.144;24.722;2024-03-07T05:06:14;99794.69;;;6.78;77.70
6853;BME280;3465;42.144;24.722;2024-03-07T05:08:41;99798.59;;;6.87;77.53
6853;BME280;3465;42.144;24.722;2024-03-07T05:11:07;99794.69;;;6.97;77.24
6853;BME280;3465;42.144;24.722;2024-03-07T05:13:32;99799.78;;;6.99;76.67
6853;BME280;3465;42.144;24.722;2024-03-07T05:15:58;99800.78;;;6.96;77.01
6853;BME280;3465;42.144;24.722;2024-03-07T05:18:24;99801.81;;;6.73;78.44
6853;BME280;3465;42.144;24.722;2024-03-07T05:20:49;99790.63;;;6.73;78.45
6853;BME280;3465;42.144;24.722;2024-03-07T05:23:15;99794.16;;;6.72;78.97
6853;BME280;3465;42.144;24.722;2024-03-07T05:25:40;99795.13;;;6.69;78.21
6853;BME280;3465;42.144;24.722;2024-03-07T05:28:06;99794.16;;;6.72;78.22
6853;BME280;3465;42.144;24.722;2024-03-07T05:30:32;99800.34;;;6.87;78.70
6853;BME280;3465;42.144;24.722;2024-03-07T05:32:58;99809.41;;;6.95;79.16
6853;BME280;3465;42.144;24.722;2024-03-07T05:35:26;99804.25;;;7.14;78.15
6853;BME280;3465;42.144;24.722;2024-03-07T05:37:54;99804.72;;;7.22;76.44
6853;BME280;3465;42.144;24.722;2024-03-07T05:40:22;99797.47;;;7.11;77.18
6853;BME280;3465;42.144;24.722;2024-03-07T05:42:47;99813.81;;;7.12;77.61
6853;BME280;3465;42.144;24.722;2024-03-07T05:45:13;99817.09;;;7.15;77.58
6853;BME280;3465;42.144;24.722;2024-03-07T05:47:43;99819.88;;;7.29;77.05
6853;BME280;3465;42.144;24.722;2024-03-07T05:50:08;99827.63;;;7.29;77.16
6853;BME280;3465;42.144;24.722;2024-03-07T05:52:34;99837.53;;;7.38;76.59
6853;BME280;3465;42.144;24.722;2024-03-07T05:55:00;99832.56;;;7.34;77.46
6853;BME280;3465;42.144;24.722;2024-03-07T05:57:25;99837.25;;;7.26;77.13
6853;BME280;3465;42.144;24.722;2024-03-07T05:59:51;99837.66;;;7.17;77.50
6853;BME280;3465;42.144;24.722;2024-03-07T06:02:17;99839.56;;;7.13;78.62
6853;BME280;3465;42.144;24.722;2024-03-07T06:04:43;99845.16;;;7.04;80.05
6853;BME280;3465;42.144;24.722;2024-03-07T06:07:08;99847.47;;;7.10;79.42
6853;BME280;3465;42.144;24.722;2024-03-07T06:09:36;99847.59;;;7.26;78.22
6853;BME280;3465;42.144;24.722;2024-03-07T06:12:02;99847.03;;;7.38;77.11
6853;BME280;3465;42.144;24.722;2024-03-07T06:14:29;99854.56;;;7.42;77.34
6853;BME280;3465;42.144;24.722;2024-03-07T06:16:55;99859.38;;;7.31;78.10
6853;BME280;3465;42.144;24.722;2024-03-07T06:19:23;99856.38;;;7.40;78.16
6853;BME280;3465;42.144;24.722;2024-03-07T06:21:48;99859.81;;;7.22;78.14
6853;BME280;3465;42.144;24.722;2024-03-07T06:24:14;99864.91;;;7.05;79.04
6853;BME280;3465;42.144;24.722;2024-03-07T06:26:40;99843.09;;;6.73;80.34
6853;BME280;3465;42.144;24.722;2024-03-07T06:29:09;99864.38;;;6.78;81.53
6853;BME280;3465;42.144;24.722;2024-03-07T06:31:36;99859.16;;;6.99;80.39
6853;BME280;3465;42.144;24.722;2024-03-07T06:34:02;99862.94;;;6.92;81.05
6853;BME280;3465;42.144;24.722;2024-03-07T06:36:28;99858.41;;;6.78;81.57
6853;BME280;3465;42.144;24.722;2024-03-07T06:38:53;99854.44;;;6.90;81.76
6853;BME280;3465;42.144;24.722;2024-03-07T06:41:19;99857.91;;;7.07;81.34
6853;BME280;3465;42.144;24.722;2024-03-07T06:43:45;99841.59;;;7.25;80.52
6853;BME280;3465;42.144;24.722;2024-03-07T06:46:10;99859.38;;;7.50;80.06
6853;BME280;3465;42.144;24.722;2024-03-07T06:48:38;99863.50;;;7.54;79.34
6853;BME280;3465;42.144;24.722;2024-03-07T06:51:05;99858.81;;;7.43;79.94
6853;BME280;3465;42.144;24.722;2024-03-07T06:53:31;99857.47;;;7.53;80.41
6853;BME280;3465;42.144;24.722;2024-03-07T06:55:56;99855.06;;;7.67;79.92
6853;BME280;3465;42.144;24.722;2024-03-07T06:58:22;99864.81;;;7.62;80.25
6853;BME280;3465;42.144;24.722;2024-03-07T07:00:51;99860.16;;;7.69;79.66
6853;BME280;3465;42.144;24.722;2024-03-07T07:03:22;99852.34;;;7.71;80.03
6853;BME280;3465;42.144;24.722;2024-03-07T07:05:49;99862.81;;;7.67;80.84
6853;BME280;3465;42.144;24.722;2024-03-07T07:08:15;99868.16;;;7.64;81.64
6853;BME280;3465;42.144;24.722;2024-03-07T07:10:41;99862.50;;;7.92;79.80
6853;BME280;3465;42.144;24.722;2024-03-07T07:13:08;99857.78;;;8.00;78.39
6853;BME280;3465;42.144;24.722;2024-03-07T07:15:33;99858.47;;;8.04;77.81
6853;BME280;3465;42.144;24.722;2024-03-07T07:17:59;99856.03;;;8.01;77.81
6853;BME280;3465;42.144;24.722;2024-03-07T07:20:27;99859.53;;;8.00;78.56
6853;BME280;3465;42.144;24.722;2024-03-07T07:22:53;99870.03;;;8.14;77.74
6853;BME280;3465;42.144;24.722;2024-03-07T07:25:20;99868.13;;;8.17;76.98
6853;BME280;3465;42.144;24.722;2024-03-07T07:27:47;99861.03;;;8.04;76.11
6853;BME280;3465;42.144;24.722;2024-03-07T07:30:14;99871.31;;;8.05;76.39
6853;BME280;3465;42.144;24.722;2024-03-07T07:32:45;99871.31;;;7.88;75.88
6853;BME280;3465;42.144;24.722;2024-03-07T07:40:04;99884.28;;;7.69;76.34
6853;BME280;3465;42.144;24.722;2024-03-07T07:42:33;99888.84;;;7.82;76.44
6853;BME280;3465;42.144;24.722;2024-03-07T07:44:58;99889.13;;;7.94;75.61
6853;BME280;3465;42.144;24.722;2024-03-07T07:47:24;99894.78;;;7.84;75.36
6853;BME280;3465;42.144;24.722;2024-03-07T07:52:15;99886.66;;;7.74;75.56
6853;BME280;3465;42.144;24.722;2024-03-07T07:54:42;99887.78;;;7.68;76.01
6853;BME280;3465;42.144;24.722;2024-03-07T07:57:07;99889.53;;;7.68;76.49
6853;BME280;3465;42.144;24.722;2024-03-07T07:59:33;99879.50;;;7.79;74.92
6853;BME280;3465;42.144;24.722;2024-03-07T08:01:58;99882.31;;;7.75;75.34
6853;BME280;3465;42.144;24.722;2024-03-07T08:04:24;99886.06;;;7.86;75.34
6853;BME280;3465;42.144;24.722;2024-03-07T08:06:49;99889.88;;;7.96;74.40
6853;BME280;3465;42.144;24.722;2024-03-07T08:09:17;99890.00;;;7.93;74.78
6853;BME280;3465;42.144;24.722;2024-03-07T08:11:42;99904.84;;;7.90;74.34
6853;BME280;3465;42.144;24.722;2024-03-07T08:14:08;99906.16;;;7.98;74.31
6853;BME280;3465;42.144;24.722;2024-03-07T08:16:33;99898.16;;;7.86;75.17
6853;BME280;3465;42.144;24.722;2024-03-07T08:18:59;99909.88;;;7.93;75.01
6853;BME280;3465;42.144;24.722;2024-03-07T08:21:24;99907.53;;;8.05;75.52
6853;BME280;3465;42.144;24.722;2024-03-07T08:23:50;99901.38;;;8.08;74.49
6853;BME280;3465;42.144;24.722;2024-03-07T08:26:15;99900.00;;;8.18;73.87
6853;BME280;3465;42.144;24.722;2024-03-07T08:28:41;99916.75;;;8.11;74.21
6853;BME280;3465;42.144;24.722;2024-03-07T08:31:07;99913.53;;;8.06;74.00
6853;BME280;3465;42.144;24.722;2024-03-07T08:33:34;99920.63;;;8.19;73.65
6853;BME280;3465;42.144;24.722;2024-03-07T08:36:00;99902.44;;;8.04;73.61
6853;BME280;3465;42.144;24.722;2024-03-07T08:38:26;99898.94;;;8.05;74.13
6853;BME280;3465;42.144;24.722;2024-03-07T08:40:52;99920.56;;;8.21;74.06
6853;BME280;3465;42.144;24.722;2024-03-07T08:43:17;99926.94;;;8.14;73.45
6853;BME280;3465;42.144;24.722;2024-03-07T08:45:43;99924.75;;;7.88;73.78
6853;BME280;3465;42.144;24.722;2024-03-07T08:48:08;99910.22;;;7.85;74.48
6853;BME280;3465;42.144;24.722;2024-03-07T08:53:04;99935.38;;;8.17;75.61
6853;BME280;3465;42.144;24.722;2024-03-07T08:55:30;99932.22;;;8.29;73.99
6853;BME280;3465;42.144;24.722;2024-03-07T08:58:01;99926.00;;;8.33;73.74
6853;BME280;3465;42.144;24.722;2024-03-07T09:00:26;99937.34;;;8.48;73.61
6853;BME280;3465;42.144;24.722;2024-03-07T09:02:59;99930.88;;;8.57;72.94
6853;BME280;3465;42.144;24.722;2024-03-07T09:07:53;99931.69;;;8.74;71.49
6853;BME280;3465;42.144;24.722;2024-03-07T09:10:19;99940.72;;;9.00;71.95
6853;BME280;3465;42.144;24.722;2024-03-07T09:12:45;99941.25;;;9.06;71.12
6853;BME280;3465;42.144;24.722;2024-03-07T09:15:11;99941.84;;;9.11;70.93
6853;BME280;3465;42.144;24.722;2024-03-07T09:17:38;99938.31;;;9.12;70.04
6853;BME280;3465;42.144;24.722;2024-03-07T09:20:05;99948.06;;;9.24;70.49
6853;BME280;3465;42.144;24.722;2024-03-07T09:22:31;99943.81;;;9.39;70.22
6853;BME280;3465;42.144;24.722;2024-03-07T09:24:58;99938.88;;;9.50;69.75
6853;BME280;3465;42.144;24.722;2024-03-07T09:27:24;99940.97;;;9.44;69.25
6853;BME280;3465;42.144;24.722;2024-03-07T09:29:50;99940.06;;;9.12;70.28
6853;BME280;3465;42.144;24.722;2024-03-07T09:32:17;99945.63;;;9.21;69.90
6853;BME280;3465;42.144;24.722;2024-03-07T09:34:42;99951.25;;;9.29;68.85
6853;BME280;3465;42.144;24.722;2024-03-07T09:37:08;99952.97;;;9.13;70.88
6853;BME280;3465;42.144;24.722;2024-03-07T09:39:34;99954.50;;;9.17;71.44
6853;BME280;3465;42.144;24.722;2024-03-07T09:42:07;99956.22;;;9.17;71.34
6853;BME280;3465;42.144;24.722;2024-03-07T09:44:38;99964.09;;;9.15;70.77
6853;BME280;3465;42.144;24.722;2024-03-07T09:47:06;99964.03;;;9.00;70.81
6853;BME280;3465;42.144;24.722;2024-03-07T09:49:33;99971.53;;;8.89;71.92
6853;BME280;3465;42.144;24.722;2024-03-07T09:52:01;99967.81;;;8.77;71.81
6853;BME280;3465;42.144;24.722;2024-03-07T09:54:29;99977.47;;;8.91;71.59
6853;BME280;3465;42.144;24.722;2024-03-07T09:56:56;99982.28;;;8.81;71.60
6853;BME280;3465;42.144;24.722;2024-03-07T09:59:25;99978.31;;;8.91;71.31
6853;BME280;3465;42.144;24.722;2024-03-07T10:01:57;99983.03;;;8.66;71.78
6853;BME280;3465;42.144;24.722;2024-03-07T10:04:43;99982.94;;;8.33;73.43
6853;BME280;3465;42.144;24.722;2024-03-07T10:07:15;99969.09;;;8.34;73.88
6853;BME280;3465;42.144;24.722;2024-03-07T10:09:41;99960.06;;;8.24;74.80
6853;BME280;3465;42.144;24.722;2024-03-07T10:12:08;99976.81;;;8.53;73.57
6853;BME280;3465;42.144;24.722;2024-03-07T10:14:49;99976.69;;;8.37;73.77
6853;BME280;3465;42.144;24.722;2024-03-07T10:17:18;99963.16;;;8.49;73.39
6853;BME280;3465;42.144;24.722;2024-03-07T10:19:47;99969.16;;;8.50;73.17
6853;BME280;3465;42.144;24.722;2024-03-07T10:22:14;99985.50;;;8.33;72.74
6853;BME280;3465;42.144;24.722;2024-03-07T10:24:49;99984.75;;;8.31;74.48
6853;BME280;3465;42.144;24.722;2024-03-07T10:27:19;99987.88;;;8.38;73.91
6853;BME280;3465;42.144;24.722;2024-03-07T10:29:48;99985.00;;;8.44;73.21
6853;BME280;3465;42.144;24.722;2024-03-07T10:32:24;99987.00;;;8.39;73.13
6853;BME280;3465;42.144;24.722;2024-03-07T10:34:51;99992.16;;;8.39;73.99
6853;BME280;3465;42.144;24.722;2024-03-07T10:37:16;99963.16;;;8.14;74.22
6853;BME280;3465;42.144;24.722;2024-03-07T10:39:49;99985.03;;;8.25;75.19
6853;BME280;3465;42.144;24.722;2024-03-07T10:42:15;99989.88;;;8.33;75.12
6853;BME280;3465;42.144;24.722;2024-03-07T10:44:47;99990.00;;;8.30;75.80
6853;BME280;3465;42.144;24.722;2024-03-07T10:47:18;99979.56;;;8.31;75.67
6853;BME280;3465;42.144;24.722;2024-03-07T10:50:15;99988.47;;;8.26;76.93
6853;BME280;3465;42.144;24.722;2024-03-07T10:53:19;99983.66;;;8.18;78.12
6853;BME280;3465;42.144;24.722;2024-03-07T10:55:41;99976.56;;;8.22;77.76
6853;BME280;3465;42.144;24.722;2024-03-07T10:58:34;99979.75;;;8.10;78.70
6853;BME280;3465;42.144;24.722;2024-03-07T11:01:04;99982.41;;;8.08;78.54
6853;BME280;3465;42.144;24.722;2024-03-07T11:03:34;99979.38;;;8.17;77.91
6853;BME280;3465;42.144;24.722;2024-03-07T11:06:01;99980.41;;;8.13;77.97
6853;BME280;3465;42.144;24.722;2024-03-07T11:08:33;99977.44;;;8.04;80.09
6853;BME280;3465;42.144;24.722;2024-03-07T11:11:00;99967.78;;;8.07;79.75
6853;BME280;3465;42.144;24.722;2024-03-07T11:13:26;99974.16;;;8.19;79.16
6853;BME280;3465;42.144;24.722;2024-03-07T11:15:54;99970.91;;;8.14;79.67
6853;BME280;3465;42.144;24.722;2024-03-07T11:18:23;99958.63;;;8.19;79.31
6853;BME280;3465;42.144;24.722;2024-03-07T11:20:49;99956.03;;;8.19;78.78
6853;BME280;3465;42.144;24.722;2024-03-07T11:23:31;99953.44;;;8.19;79.77
6853;BME280;3465;42.144;24.722;2024-03-07T11:26:10;99951.47;;;8.24;79.21
6853;BME280;3465;42.144;24.722;2024-03-07T11:28:40;99956.63;;;8.24;78.98
6853;BME280;3465;42.144;24.722;2024-03-07T11:31:25;99960.72;;;8.11;79.26
6853;BME280;3465;42.144;24.722;2024-03-07T11:36:46;99952.31;;;8.24;77.75
6853;BME280;3465;42.144;24.722;2024-03-07T11:39:43;99948.94;;;8.22;78.40
6853;BME280;3465;42.144;24.722;2024-03-07T11:42:23;99936.28;;;8.35;79.48
6853;BME280;3465;42.144;24.722;2024-03-07T11:44:54;99928.53;;;8.35;78.56
6853;BME280;3465;42.144;24.722;2024-03-07T11:47:22;99926.28;;;8.27;78.09
6853;BME280;3465;42.144;24.722;2024-03-07T11:49:50;99911.19;;;8.18;78.97
6853;BME280;3465;42.144;24.722;2024-03-07T11:52:20;99902.38;;;8.22;79.12
6853;BME280;3465;42.144;24.722;2024-03-07T11:54:46;99900.78;;;8.20;78.57
6853;BME280;3465;42.144;24.722;2024-03-07T11:57:20;99895.69;;;8.18;79.81
6853;BME280;3465;42.144;24.722;2024-03-07T11:59:52;99897.13;;;8.07;79.06
6853;BME280;3465;42.144;24.722;2024-03-07T12:02:18;99907.59;;;8.04;79.64
6853;BME280;3465;42.144;24.722;2024-03-07T12:04:49;99907.38;;;8.08;79.23
6853;BME280;3465;42.144;24.722;2024-03-07T12:07:16;99908.38;;;8.06;80.11
6853;BME280;3465;42.144;24.722;2024-03-07T12:09:48;99919.94;;;8.16;80.20
6853;BME280;3465;42.144;24.722;2024-03-07T12:12:20;99916.22;;;8.21;81.29
6853;BME280;3465;42.144;24.722;2024-03-07T12:14:47;99908.63;;;8.18;79.56
6853;BME280;3465;42.144;24.722;2024-03-07T12:17:16;99906.63;;;8.23;77.26
6853;BME280;3465;42.144;24.722;2024-03-07T12:19:42;99902.44;;;8.04;79.13
6853;BME280;3465;42.144;24.722;2024-03-07T12:22:09;99895.31;;;8.09;80.09
6853;BME280;3465;42.144;24.722;2024-03-07T12:24:39;99890.34;;;8.04;79.83
6853;BME280;3465;42.144;24.722;2024-03-07T12:27:15;99888.97;;;8.14;79.23
6853;BME280;3465;42.144;24.722;2024-03-07T12:29:42;99891.31;;;8.02;79.13
6853;BME280;3465;42.144;24.722;2024-03-07T12:32:12;99895.00;;;8.15;79.91
6853;BME280;3465;42.144;24.722;2024-03-07T12:34:42;99889.19;;;8.10;80.09
6853;BME280;3465;42.144;24.722;2024-03-07T12:37:11;99898.19;;;8.03;80.97
6853;BME280;3465;42.144;24.722;2024-03-07T12:39:41;99892.38;;;7.98;80.12
6853;BME280;3465;42.144;24.722;2024-03-07T12:42:17;99904.84;;;7.90;79.77
6853;BME280;3465;42.144;24.722;2024-03-07T12:44:44;99897.84;;;7.92;80.82
6853;BME280;3465;42.144;24.722;2024-03-07T12:47:13;99898.81;;;7.89;80.92
6853;BME280;3465;42.144;24.722;2024-03-07T12:49:43;99902.94;;;7.93;80.04
6853;BME280;3465;42.144;24.722;2024-03-07T12:52:09;99908.88;;;7.78;80.23
6853;BME280;3465;42.144;24.722;2024-03-07T12:54:36;99908.09;;;7.76;80.13
6853;BME280;3465;42.144;24.722;2024-03-07T12:57:13;99910.38;;;7.82;79.73
6853;BME280;3465;42.144;24.722;2024-03-07T12:59:39;99893.19;;;7.81;80.43
6853;BME280;3465;42.144;24.722;2024-03-07T13:02:08;99892.84;;;7.89;81.22
6853;BME280;3465;42.144;24.722;2024-03-07T13:04:34;99901.13;;;7.95;80.02
6853;BME280;3465;42.144;24.722;2024-03-07T13:07:00;99902.19;;;7.91;79.54
6853;BME280;3465;42.144;24.722;2024-03-07T13:09:32;99892.38;;;7.98;80.22
6853;BME280;3465;42.144;24.722;2024-03-07T13:12:00;99884.66;;;7.79;79.62
6853;BME280;3465;42.144;24.722;2024-03-07T13:14:31;99895.66;;;8.01;79.41
6853;BME280;3465;42.144;24.722;2024-03-07T13:17:01;99888.75;;;8.19;80.32
6853;BME280;3465;42.144;24.722;2024-03-07T13:19:28;99886.72;;;8.25;80.09
6853;BME280;3465;42.144;24.722;2024-03-07T13:21:54;99875.56;;;8.23;80.26
6853;BME280;3465;42.144;24.722;2024-03-07T13:24:21;99880.78;;;8.40;79.72
6853;BME280;3465;42.144;24.722;2024-03-07T13:26:46;99886.59;;;8.28;78.48
6853;BME280;3465;42.144;24.722;2024-03-07T13:29:18;99889.84;;;8.32;79.06
6853;BME280;3465;42.144;24.722;2024-03-07T13:31:50;99893.19;;;8.34;78.96
6853;BME280;3465;42.144;24.722;2024-03-07T13:34:16;99892.13;;;8.38;79.10
6853;BME280;3465;42.144;24.722;2024-03-07T13:39:12;99892.59;;;8.46;77.85
6853;BME280;3465;42.144;24.722;2024-03-07T13:41:40;99884.22;;;8.41;77.84